Latest Weather Observations for Broken Hill Airport

IDN60801

Issued at 6:05 am EDT Monday 2 March 2015 (issued every 30 minutes, with the page automatically refreshed every 10 minutes)

About weather observations | Map of weather stations | Latest weather observations for NSW | Other Formats
Station Details ID: 047048 Name: BROKEN HILL AIRPORT AWS Lat: -32.00 Lon: 141.47 Height: 281.3 m
Data from the previous 72 hours. | See also: Recent months for locations in New South Wales
Date/Time
EDT
Temp
°C
App
Temp
°C
Dew
Point
Rel
Hum
%
Delta-T
°C
Wind Press
QNH
hPa
Press
MSL
hPa
Rain
since 9 am
mm
Dir
 
Spd
km/h
Gust
km/h
Spd
kts
Gust
kts
02/06:00am 18.3 12.2 3.0 36 7.2 ESE 24 30 13 16 1013.7 1012.5 0.0
02/05:30am 18.1 12.8 2.8 36 7.1 ESE 20 24 11 13 1013.5 1012.3 0.0
02/05:00am 18.2 12.9 2.1 34 7.4 SE 19 22 10 12 1013.6 1012.4 0.0
02/04:30am 18.7 13.8 2.1 33 7.7 SE 17 20 9 11 1013.9 1012.7 0.0
02/04:00am 18.5 13.6 1.9 33 7.6 SE 17 20 9 11 1013.9 1012.7 0.0
02/03:30am 18.8 13.9 2.2 33 7.7 SE 17 22 9 12 1014.2 1013.1 0.0
02/03:00am 17.3 13.0 1.3 34 7.2 SSE 13 15 7 8 1014.4 1013.3 0.0
02/02:30am 18.3 13.7 1.8 33 7.6 SE 15 19 8 10 1014.4 1013.3 0.0
02/02:00am 18.3 14.0 1.3 32 7.7 SE 13 17 7 9 1014.7 1013.6 0.0
02/01:30am 19.1 14.1 1.1 30 8.2 SSE 17 20 9 11 1014.8 1013.7 0.0
02/01:00am 19.8 15.2 1.3 29 8.5 SSE 15 19 8 10 1014.9 1013.8 0.0
02/12:30am 20.1 15.0 1.0 28 8.7 SSE 17 20 9 11 1014.5 1013.4 0.0
02/12:00am 20.1 15.0 1.0 28 8.7 SSE 17 20 9 11 1014.6 1013.5 0.0
 
Date/Time
EDT
Temp
°C
App
Temp
°C
Dew
Point
Rel
Hum
%
Delta-T
°C
Wind Press
QNH
hPa
Press
MSL
hPa
Rain
since 9 am
mm
Dir
 
Spd
km/h
Gust
km/h
Spd
kts
Gust
kts
01/11:30pm 20.7 15.7 1.1 27 9.0 SSE 17 20 9 11 1014.6 1013.5 0.0
01/11:00pm 20.7 15.9 0.5 26 9.2 SSE 15 19 8 10 1014.7 1013.6 0.0
01/10:30pm 21.7 16.6 0.8 25 9.7 SSE 17 22 9 12 1014.7 1013.6 0.0
01/10:00pm 22.1 16.6 0.6 24 9.9 SSE 19 24 10 13 1014.5 1013.4 0.0
01/09:00pm 23.2 18.1 0.9 23 10.4 SSE 17 20 9 11 1014.2 1013.1 0.0
01/08:30pm 24.1 18.1 1.1 22 10.9 SSE 22 30 12 16 1013.8 1012.6 0.0
01/08:00pm 25.0 18.2 0.5 20 11.5 SSE 26 35 14 19 1013.4 1012.2 0.0
01/07:30pm 25.9 18.2 -0.2 18 12.2 SSE 30 39 16 21 1013.3 1012.1 0.0
01/07:00pm 26.5 18.4 -0.5 17 12.6 SSE 32 43 17 23 1013.0 1011.8 0.0
01/06:30pm 27.3 19.0 -1.6 15 13.3 SSE 32 41 17 22 1012.7 1011.5 0.0
01/06:00pm 27.3 19.1 -0.7 16 13.1 S 32 46 17 25 1012.7 1011.5 0.0
01/05:30pm 27.1 18.6 -1.7 15 13.2 S 33 44 18 24 1012.4 1011.2 0.0
01/05:00pm 27.8 19.7 1.3 18 12.9 S 33 46 18 25 1012.4 1011.2 0.0
01/04:30pm 28.1 19.5 -0.1 16 13.4 SSE 35 48 19 26 1012.5 1011.3 0.0
01/04:00pm 28.0 20.2 1.5 18 13.0 SSE 32 43 17 23 1012.7 1011.5 0.0
01/03:30pm 26.7 18.9 2.6 21 11.9 S 33 46 18 25 1012.9 1011.7 0.0
01/03:00pm 26.8 19.2 4.0 23 11.6 SSE 33 46 18 25 1013.2 1012.0 0.0
01/02:45pm 25.5 18.1 4.0 25 10.8 S 32 50 17 27 1013.3 1012.1 0.0
01/02:30pm 25.9 18.6 5.5 27 10.6 S 33 44 18 24 1013.4 1012.2 0.0
01/02:00pm 24.8 17.4 5.1 28 10.1 S 33 44 18 24 1013.6 1012.4 0.0
01/01:30pm 23.7 16.5 6.0 32 9.1 S 33 50 18 27 1013.8 1012.6 0.0
01/01:00pm 23.5 16.1 6.7 34 8.8 S 35 46 19 25 1014.0 1012.8 0.0
01/12:30pm 22.7 15.4 7.3 37 8.1 S 35 48 19 26 1014.2 1013.1 0.0
01/12:00pm 22.0 14.2 8.2 41 7.3 SSE 39 48 21 26 1014.6 1013.5 0.0
01/11:30am 21.5 13.8 8.7 44 6.9 S 39 50 21 27 1014.5 1013.4 0.0
01/11:00am 20.3 12.8 9.5 50 5.8 S 39 50 21 27 1014.3 1013.2 0.0
01/10:30am 19.2 10.9 9.4 53 5.2 S 43 52 23 28 1014.3 1012.8 0.0
01/10:00am 19.3 10.9 9.8 54 5.1 S 44 56 24 30 1014.0 1012.5 0.0
01/09:30am 18.0 9.5 9.1 56 4.7 S 44 56 24 30 1013.7 1012.2 0.0
01/09:00am 17.9 9.1 9.5 58 4.5 S 46 59 25 32 1013.3 1011.7 0.0
01/08:30am 16.9 8.9 10.3 65 3.5 S 43 54 23 29 1013.1 1011.5 0.0
01/08:00am 16.3 8.3 10.4 68 3.2 S 43 52 23 28 1012.6 1011.0 0.0
01/07:30am 16.5 9.4 10.8 69 3.1 SSW 39 50 21 27 1012.1 1010.5 0.0
01/07:00am 17.3 10.8 11.6 69 3.2 SSW 37 50 20 27 1011.3 1009.8 0.0
01/06:30am 17.8 10.8 12.5 71 3.0 SSW 41 50 22 27 1010.7 1009.2 0.0
01/06:00am 18.7 13.6 13.8 73 2.8 SSW 33 46 18 25 1010.4 1008.9 0.0
01/05:30am 19.2 14.1 13.8 71 3.1 SSW 33 43 18 23 1010.1 1008.5 0.0
01/05:00am 19.8 14.8 14.0 69 3.4 SSW 33 46 18 25 1009.6 1008.0 0.0
01/04:30am 21.0 15.4 14.4 66 3.9 SSW 37 48 20 26 1009.1 1007.5 0.0
01/04:00am 21.9 16.8 13.8 60 4.8 SSW 33 43 18 23 1008.7 1007.1 0.0
01/03:30am 22.8 17.8 13.3 55 5.6 SSW 32 41 17 22 1008.6 1007.0 0.0
01/03:00am 23.8 17.1 12.4 48 6.6 S 39 50 21 27 1008.1 1006.5 0.0
01/02:30am 24.6 18.3 12.2 46 7.2 SSW 37 46 20 25 1008.1 1006.5 0.0
01/02:00am 25.4 19.0 11.9 43 7.8 SSW 37 48 20 26 1008.1 1006.5 0.0
01/01:30am 26.4 20.6 10.9 38 8.8 SSW 32 43 17 23 1007.9 1006.4 0.0
01/01:00am 27.5 21.4 9.8 33 10.0 SSW 32 44 17 24 1007.8 1006.3 0.0
01/12:30am 29.2 23.7 9.3 29 11.2 SSW 28 37 15 20 1007.7 1006.2 0.0
01/12:00am 29.6 23.6 8.6 27 11.7 SSW 30 37 16 20 1007.6 1006.1 0.0
 
Date/Time
EDT
Temp
°C
App
Temp
°C
Dew
Point
Rel
Hum
%
Delta-T
°C
Wind Press
QNH
hPa
Press
MSL
hPa
Rain
since 9 am
mm
Dir
 
Spd
km/h
Gust
km/h
Spd
kts
Gust
kts
28/11:30pm 30.4 23.5 8.7 26 12.2 SSW 35 48 19 26 1007.4 1005.9 0.0
28/11:05pm 31.6 25.0 8.6 24 13.0 SW 33 59 18 32 1007.0 1005.4 0.0
28/11:02pm 32.0 26.7 8.3 23 13.3 WSW 26 48 14 26 1007.1 1005.6 0.0
28/11:01pm 32.0 27.1 8.3 23 13.3 W 24 48 13 26 1007.1 1005.6 0.0
28/11:00pm 32.1 27.6 7.0 21 13.9 WNW 20 43 11 23 1007.1 1005.6 0.0
28/10:59pm 32.3 28.0 7.2 21 13.9 WNW 19 39 10 21 1007.0 1005.4 0.0
28/10:30pm 33.2 30.1 5.7 18 14.9 NNW 11 13 6 7 1005.9 1004.3 0.0
28/10:00pm 33.5 30.7 5.1 17 15.3 NNW 9 13 5 7 1005.7 1004.1 0.0
28/09:30pm 33.6 31.0 6.0 18 15.1 N 9 13 5 7 1005.4 1003.8 0.0
28/09:00pm 34.2 31.9 5.7 17 15.6 N 7 11 4 6 1005.1 1003.5 0.0
28/08:30pm 34.7 32.3 5.2 16 16.0 NNW 7 11 4 6 1005.0 1003.4 0.0
28/08:00pm 35.8 33.0 5.1 15 16.8 NNW 9 11 5 6 1004.8 1003.2 0.0
28/07:30pm 37.0 33.4 5.1 14 17.5 WNW 13 20 7 11 1004.6 1003.0 0.0
28/07:00pm 37.1 32.8 5.2 14 17.6 WNW 17 26 9 14 1004.7 1003.1 0.0
28/06:30pm 37.1 32.2 5.2 14 17.6 W 20 33 11 18 1004.6 1003.0 0.0
28/06:00pm 37.9 33.5 4.7 13 18.2 WSW 17 32 9 17 1004.6 1003.0 0.0
28/05:30pm 38.3 33.6 6.1 14 18.0 W 20 30 11 16 1004.6 1003.0 0.0
28/05:00pm 37.4 33.9 5.4 14 17.7 W 13 22 7 12 1004.7 1003.1 0.0
28/04:30pm 36.8 32.0 4.9 14 17.4 W 19 30 10 16 1005.0 1003.4 0.0
28/04:00pm 37.2 31.6 5.3 14 17.6 WNW 24 44 13 24 1005.1 1003.5 0.0
28/03:30pm 37.0 32.1 5.1 14 17.5 WSW 20 35 11 19 1005.5 1003.9 0.0
28/03:00pm 37.6 32.0 5.6 14 17.8 W 24 37 13 20 1005.9 1004.3 0.0
28/02:51pm 37.7 32.9 5.6 14 17.8 WSW 20 37 11 20 1006.0 1004.4 0.0
28/02:30pm 36.5 32.8 4.7 14 17.3 WSW 13 26 7 14 1006.2 1004.6 0.0
28/02:00pm 36.3 32.3 6.5 16 16.7 NW 17 35 9 19 1006.6 1005.0 0.0
28/01:30pm 35.3 31.1 5.7 16 16.2 NNW 17 32 9 17 1006.9 1005.3 0.0
28/01:00pm 35.6 31.6 6.8 17 16.1 NW 17 26 9 14 1007.4 1005.9 0.0
28/12:30pm 34.9 30.6 7.1 18 15.6 NNW 19 32 10 17 1007.7 1006.2 0.0
28/12:00pm 34.1 31.0 7.2 19 15.0 N 13 19 7 10 1007.9 1006.4 0.0
28/11:30am 33.9 30.9 7.8 20 14.7 NNW 13 24 7 13 1008.2 1006.6 0.0
28/11:00am 33.2 29.5 7.9 21 14.2 N 17 24 9 13 1008.5 1006.9 0.0
28/10:30am 32.2 28.5 7.8 22 13.6 NNE 17 22 9 12 1008.5 1006.9 0.0
28/10:00am 31.7 28.9 8.7 24 13.0 NE 13 19 7 10 1008.6 1007.0 0.0
28/09:30am 29.9 27.2 8.9 27 11.8 NNE 13 17 7 9 1008.5 1006.9 0.0
28/09:00am 27.6 25.3 9.0 31 10.4 N 11 13 6 7 1008.4 1006.8 0.0
28/08:30am 25.5 24.6 9.3 36 9.0 NNE 4 9 2 5 1008.2 1006.6 0.0
28/08:00am 24.4 22.7 8.4 36 8.7 NE 7 9 4 5 1007.7 1006.2 0.0
28/07:30am 24.1 22.1 8.5 37 8.4 NNE 9 9 5 5 1007.4 1005.9 0.0
28/07:00am 24.3 22.1 7.9 35 8.8 NE 9 11 5 6 1007.1 1005.6 0.0
28/06:30am 24.4 22.1 7.5 34 9.0 NE 9 11 5 6 1006.9 1005.3 0.0
28/06:00am 25.0 22.3 7.2 32 9.5 ENE 11 11 6 6 1006.9 1005.3 0.0
28/05:30am 26.9 24.8 8.4 31 10.2 NNE 9 11 5 6 1006.5 1004.9 0.0
28/05:00am 26.9 24.4 8.4 31 10.2 NNE 11 15 6 8 1006.6 1005.0 0.0
28/04:30am 27.2 24.7 8.1 30 10.4 NNE 11 13 6 7 1006.7 1005.1 0.0
28/04:00am 27.3 25.2 8.2 30 10.5 NNE 9 11 5 6 1007.0 1005.4 0.0
28/03:30am 27.4 25.2 7.8 29 10.7 NNE 9 11 5 6 1007.0 1005.4 0.0
28/03:00am 27.5 24.5 7.9 29 10.7 NE 13 13 7 7 1007.1 1005.6 0.0
28/02:30am 27.5 25.3 7.9 29 10.7 NNE 9 11 5 6 1007.6 1006.1 0.0
28/02:00am 26.8 24.5 7.3 29 10.5 NNE 9 9 5 5 1008.1 1006.5 0.0
28/01:30am 26.3 23.1 6.9 29 10.3 ENE 13 15 7 8 1008.5 1006.9 0.0
28/01:00am 26.2 23.8 6.8 29 10.3 ENE 9 11 5 6 1008.7 1007.1 0.0
28/12:30am 25.3 22.3 6.0 29 10.1 ENE 11 11 6 6 1008.9 1007.3 0.0
28/12:00am 27.4 24.6 6.8 27 11.0 NE 11 11 6 6 1009.3 1007.7 0.0
 
Date/Time
EDT
Temp
°C
App
Temp
°C
Dew
Point
Rel
Hum
%
Delta-T
°C
Wind Press
QNH
hPa
Press
MSL
hPa
Rain
since 9 am
mm
Dir
 
Spd
km/h
Gust
km/h
Spd
kts
Gust
kts
27/11:30pm 28.5 26.3 7.7 27 11.4 NE 9 11 5 6 1009.3 1007.7 0.0
27/11:00pm 28.4 25.6 7.1 26 11.5 ENE 11 11 6 6 1009.2 1007.6 0.0
27/10:30pm 28.2 25.8 6.9 26 11.5 ENE 9 11 5 6 1009.2 1007.6 0.0
27/10:00pm 29.1 26.7 7.1 25 12.0 ESE 9 9 5 5 1009.1 1007.5 0.0
27/09:30pm 29.4 26.5 6.7 24 12.3 ESE 11 13 6 7 1008.8 1007.2 0.0
27/09:00pm 29.7 26.8 6.4 23 12.6 SE 11 11 6 6 1008.7 1007.1 0.0
27/08:30pm 30.9 27.7 6.7 22 13.2 SE 13 15 7 8 1008.5 1006.9 0.0
27/08:00pm 31.5 28.1 5.8 20 13.9 SSE 13 17 7 9 1008.3 1006.7 0.0
27/07:30pm 32.5 29.3 6.7 20 14.2 SE 13 15 7 8 1007.9 1006.4 0.0
27/07:00pm 32.8 28.3 6.2 19 14.5 S 19 24 10 13 1007.9 1006.4 0.0
27/06:30pm 32.9 29.9 6.2 19 14.6 SE 11 22 6 12 1007.6 1006.1 0.0
27/06:00pm 34.3 29.9 7.4 19 15.1 S 20 32 11 17 1007.6 1006.1 0.0
27/05:30pm 33.6 30.4 6.8 19 14.8 S 13 20 7 11 1007.6 1006.1 0.0
27/05:00pm 33.3 29.8 7.3 20 14.5 SSE 15 26 8 14 1007.9 1006.4 0.0
27/04:30pm 34.3 30.6 8.1 20 14.8 S 17 30 9 16 1008.1 1006.5 0.0
27/04:00pm 33.7 30.3 7.6 20 14.7 E 15 24 8 13 1008.4 1006.8 0.0
27/03:30pm 33.9 30.9 7.8 20 14.7 S 13 26 7 14 1008.9 1007.3 0.0
27/03:00pm 33.7 29.7 8.3 21 14.4 SSW 19 32 10 17 1009.2 1007.6 0.0
27/02:30pm 32.4 28.9 7.3 21 13.9 SW 15 26 8 14 1009.6 1008.0 0.0
27/02:00pm 32.4 28.9 8.6 23 13.5 SW 17 24 9 13 1010.0 1008.4 0.0
27/01:30pm 32.2 28.9 9.7 25 12.9 SSE 17 30 9 16 1010.2 1008.7 0.0
27/01:00pm 31.6 28.7 9.8 26 12.5 SSE 15 28 8 15 1010.7 1009.2 0.0
27/12:30pm 31.0 28.1 9.8 27 12.2 S 15 20 8 11 1011.1 1009.6 0.0
27/12:00pm 30.6 28.7 10.5 29 11.6 SE 11 24 6 13 1011.5 1010.0 0.0
27/11:30am 29.8 27.1 10.4 30 11.2 E 15 24 8 13 1011.9 1010.3 0.0
27/11:00am 29.1 26.1 10.7 32 10.6 E 17 26 9 14 1011.8 1010.2 0.0
27/10:30am 27.9 24.6 11.0 35 9.7 ESE 19 24 10 13 1011.9 1010.3 0.0
27/10:00am 27.2 24.4 11.2 36 9.2 SE 17 24 9 13 1011.9 1010.3 0.0
27/09:30am 26.4 24.6 10.9 38 8.9 SE 11 17 6 9 1012.0 1010.4 0.0
27/09:00am 25.5 23.3 10.9 40 8.3 ESE 13 15 7 8 1011.8 1010.2 0.0
27/08:30am 24.4 23.1 11.4 44 7.4 SSE 9 15 5 8 1011.8 1010.2 0.0
27/08:00am 22.0 22.0 11.1 50 6.1 SSW 2 7 1 4 1011.4 1009.9 0.0
27/07:30am 20.2 18.8 9.7 51 5.7 S 7 11 4 6 1011.3 1009.8 0.0
27/07:00am 21.5 19.2 10.6 50 6.0 SSE 13 17 7 9 1010.8 1009.3 0.0

Other Formats:

Comma delimited format used in spreadsheet applications
http://www.bom.gov.au/fwo/IDN60801/IDN60801.94691.axf

JavaScript Object Notation format (JSON) in row-major order
http://www.bom.gov.au/fwo/IDN60801/IDN60801.94691.json